createdAt,value
2023-02-19T00:00:24.021Z,4.78
2023-02-19T00:02:52.046Z,4.45
2023-02-19T00:05:18.772Z,4.20
2023-02-19T00:07:45.474Z,4.32
2023-02-19T00:10:12.145Z,4.70
2023-02-19T00:12:38.830Z,4.03
2023-02-19T00:15:06.005Z,4.35
2023-02-19T00:17:32.825Z,4.70
2023-02-19T00:20:01.112Z,4.43
2023-02-19T00:22:27.766Z,4.45
2023-02-19T00:24:54.483Z,4.78
2023-02-19T00:27:21.151Z,5.30
2023-02-19T00:29:47.880Z,4.63
2023-02-19T00:32:14.609Z,4.93
2023-02-19T00:34:41.375Z,4.85
2023-02-19T00:37:09.485Z,5.07
2023-02-19T00:39:36.150Z,4.63
2023-02-19T00:42:02.879Z,5.15
2023-02-19T00:44:29.652Z,4.95
2023-02-19T00:46:56.305Z,5.10
2023-02-19T00:49:23.869Z,5.05
2023-02-19T00:51:52.095Z,4.75
2023-02-19T00:54:20.504Z,5.45
2023-02-19T00:56:47.286Z,5.18
2023-02-19T00:59:14.345Z,5.43
2023-02-19T01:01:41.319Z,5.32
2023-02-19T01:04:08.038Z,5.10
2023-02-19T01:06:34.938Z,4.85
2023-02-19T01:09:01.654Z,4.72
2023-02-19T01:11:29.858Z,4.40
2023-02-19T01:13:58.063Z,4.78
2023-02-19T01:16:25.084Z,4.40
2023-02-19T01:18:51.803Z,5.28
2023-02-19T01:21:20.152Z,5.10
2023-02-19T01:23:47.324Z,4.97
2023-02-19T01:26:16.377Z,5.18
2023-02-19T01:28:56.744Z,5.78
2023-02-19T01:31:25.257Z,5.55
2023-02-19T01:33:54.627Z,5.30
2023-02-19T01:36:22.168Z,5.70
2023-02-19T01:38:48.836Z,5.80
2023-02-19T01:41:17.986Z,5.72
2023-02-19T01:44:00.894Z,5.43
2023-02-19T01:46:28.874Z,5.15
2023-02-19T01:48:59.317Z,5.60
2023-02-19T01:51:26.884Z,5.30
2023-02-19T01:53:58.949Z,5.15
2023-02-19T01:56:27.859Z,5.82
2023-02-19T01:58:54.649Z,5.28
2023-02-19T02:01:22.763Z,5.05
2023-02-19T02:03:49.724Z,5.30
2023-02-19T02:06:22.577Z,5.10
2023-02-19T02:08:51.554Z,4.97
2023-02-19T02:11:19.663Z,6.30
2023-02-19T02:13:46.681Z,5.57
2023-02-19T02:16:27.697Z,5.65
2023-02-19T02:19:01.903Z,5.50
2023-02-19T02:21:57.618Z,5.47
2023-02-19T02:24:50.809Z,5.13
2023-02-19T02:27:35.580Z,5.28
2023-02-19T02:30:27.422Z,5.90
2023-02-19T02:33:00.956Z,5.32
2023-02-19T02:35:31.055Z,5.32
2023-02-19T02:38:02.795Z,5.00
2023-02-19T02:40:30.237Z,5.22
2023-02-19T02:42:57.359Z,5.97
2023-02-19T02:45:31.269Z,4.95
2023-02-19T02:47:58.718Z,5.03
2023-02-19T02:50:29.285Z,5.60
2023-02-19T02:53:01.505Z,4.85
2023-02-19T02:55:31.239Z,5.60
2023-02-19T02:57:57.996Z,5.43
2023-02-19T03:00:27.798Z,5.63
2023-02-19T03:02:56.519Z,5.10
2023-02-19T03:05:25.822Z,5.45
2023-02-19T03:07:56.512Z,5.13
2023-02-19T03:10:26.266Z,4.72
2023-02-19T03:12:57.081Z,4.95
2023-02-19T03:15:27.740Z,4.50
2023-02-19T03:17:59.131Z,4.57
2023-02-19T03:20:27.104Z,4.78
2023-02-19T03:22:56.705Z,4.20
2023-02-19T03:25:26.505Z,4.78
2023-02-19T03:27:55.168Z,4.88
2023-02-19T03:30:25.420Z,4.30
2023-02-19T03:32:55.893Z,4.82
2023-02-19T03:35:25.531Z,3.78
2023-02-19T03:37:59.586Z,4.45
2023-02-19T03:40:29.453Z,4.72
2023-02-19T03:43:03.697Z,4.60
2023-02-19T03:45:37.899Z,4.57
2023-02-19T03:48:23.316Z,4.45
2023-02-19T03:50:55.640Z,4.20
2023-02-19T03:53:27.162Z,4.80
2023-02-19T03:56:05.556Z,4.45
2023-02-19T03:58:39.993Z,4.55
2023-02-19T04:01:10.769Z,3.78
2023-02-19T04:03:46.682Z,3.92
2023-02-19T04:06:16.876Z,4.03
2023-02-19T04:08:47.752Z,3.88
2023-02-19T04:11:15.606Z,3.75
2023-02-19T04:13:46.738Z,4.22
2023-02-19T04:16:18.554Z,3.80
2023-02-19T04:18:49.399Z,3.97
2023-02-19T04:21:17.156Z,4.03
2023-02-19T04:23:45.697Z,3.65
2023-02-19T04:26:14.472Z,3.60
2023-02-19T04:28:41.437Z,3.28
2023-02-19T04:31:08.488Z,3.40
2023-02-19T04:33:35.515Z,4.18
2023-02-19T04:36:03.815Z,3.20
2023-02-19T04:38:30.534Z,3.22
2023-02-19T04:40:57.733Z,3.45
2023-02-19T04:43:24.544Z,3.20
2023-02-19T04:45:51.292Z,3.03
2023-02-19T04:48:18.113Z,3.40
2023-02-19T04:50:44.848Z,3.22
2023-02-19T04:53:13.005Z,3.15
2023-02-19T04:55:39.785Z,3.50
2023-02-19T04:58:06.558Z,3.42
2023-02-19T05:00:33.349Z,2.88
2023-02-19T05:03:00.531Z,2.80
2023-02-19T05:05:27.253Z,2.72
2023-02-19T05:07:54.078Z,2.90
2023-02-19T05:10:22.227Z,2.53
2023-02-19T05:12:48.966Z,3.28
2023-02-19T05:15:15.719Z,2.80
2023-02-19T05:17:42.418Z,3.55
2023-02-19T05:20:09.697Z,2.78
2023-02-19T05:22:36.458Z,3.20
2023-02-19T05:25:03.483Z,3.63
2023-02-19T05:27:32.230Z,3.42
2023-02-19T05:29:59.155Z,2.95
2023-02-19T05:32:25.950Z,3.05
2023-02-19T05:34:52.699Z,3.00
2023-02-19T05:37:19.387Z,2.92
2023-02-19T05:39:46.108Z,2.90
2023-02-19T05:42:14.090Z,2.83
2023-02-19T05:44:42.294Z,2.85
2023-02-19T05:47:09.192Z,3.13
2023-02-19T05:49:35.966Z,2.78
2023-02-19T05:52:02.713Z,3.13
2023-02-19T05:54:30.047Z,2.10
2023-02-19T05:56:56.983Z,2.13
2023-02-19T05:59:25.106Z,1.80
2023-02-19T06:01:54.715Z,2.08
2023-02-19T06:04:21.886Z,2.28
2023-02-19T06:06:49.331Z,2.70
2023-02-19T06:09:16.166Z,2.17
2023-02-19T06:11:43.102Z,1.77
2023-02-19T06:14:11.914Z,1.73
2023-02-19T06:16:38.579Z,1.50
2023-02-19T06:19:06.632Z,1.85
2023-02-19T06:21:33.458Z,1.65
2023-02-19T06:24:04.975Z,2.08
2023-02-19T06:26:31.662Z,1.48
2023-02-19T06:28:58.381Z,2.05
2023-02-19T06:31:25.136Z,1.90
2023-02-19T06:33:51.935Z,2.20
2023-02-19T06:36:21.444Z,1.70
2023-02-19T06:38:48.458Z,2.15
2023-02-19T06:41:15.776Z,1.50
2023-02-19T06:43:42.619Z,1.10
2023-02-19T06:46:11.504Z,1.00
2023-02-19T06:48:39.828Z,1.13
2023-02-19T06:51:06.721Z,1.48
2023-02-19T06:53:34.808Z,1.25
2023-02-19T06:56:03.473Z,0.90
2023-02-19T06:58:30.769Z,1.13
2023-02-19T07:00:57.775Z,1.50
2023-02-19T07:03:24.532Z,1.05
2023-02-19T07:05:51.221Z,1.02
2023-02-19T07:08:18.011Z,0.80
2023-02-19T07:10:46.148Z,0.90
2023-02-19T07:13:12.843Z,0.90
2023-02-19T07:15:39.573Z,1.95
2023-02-19T07:18:06.340Z,1.30
2023-02-19T07:20:33.037Z,1.27
2023-02-19T07:22:59.871Z,0.90
2023-02-19T07:25:26.626Z,1.13
2023-02-19T07:27:54.699Z,1.40
2023-02-19T07:30:21.430Z,1.73
2023-02-19T07:32:48.344Z,1.02
2023-02-19T07:35:15.157Z,1.23
2023-02-19T07:37:41.905Z,1.35
2023-02-19T07:40:09.037Z,1.42
2023-02-19T07:42:35.729Z,1.50
2023-02-19T07:45:04.322Z,1.42
2023-02-19T07:47:31.008Z,1.20
2023-02-19T07:49:57.761Z,1.05
2023-02-19T07:52:24.594Z,1.80
2023-02-19T07:54:51.287Z,1.55
2023-02-19T07:57:17.971Z,0.93
2023-02-19T07:59:44.666Z,1.38
2023-02-19T08:02:16.459Z,1.10
2023-02-19T08:04:43.120Z,1.10
2023-02-19T08:07:09.836Z,1.45
2023-02-19T08:09:36.573Z,1.20
2023-02-19T08:12:03.579Z,1.50
2023-02-19T08:14:30.378Z,1.33
2023-02-19T08:16:57.157Z,1.55
2023-02-19T08:19:25.407Z,1.60
2023-02-19T08:21:52.176Z,1.38
2023-02-19T08:24:18.854Z,1.40
2023-02-19T08:26:45.590Z,1.30
2023-02-19T08:29:12.343Z,1.25
2023-02-19T08:31:39.118Z,1.30
2023-02-19T08:34:05.839Z,1.40
2023-02-19T08:36:33.903Z,2.20
2023-02-19T08:39:00.560Z,2.35
2023-02-19T08:41:27.304Z,2.42
2023-02-19T08:43:54.033Z,2.28
2023-02-19T08:46:20.785Z,1.70
2023-02-19T08:48:47.523Z,2.03
2023-02-19T08:51:14.698Z,1.88
2023-02-19T08:53:43.087Z,1.80
2023-02-19T08:56:11.610Z,2.03
2023-02-19T08:58:38.791Z,1.42
2023-02-19T09:01:09.436Z,1.38
2023-02-19T09:03:36.296Z,1.20
2023-02-19T09:06:03.044Z,1.38
2023-02-19T09:08:29.789Z,2.80
2023-02-19T09:11:02.984Z,1.50
2023-02-19T09:13:29.706Z,1.52
2023-02-19T09:15:56.619Z,1.33
2023-02-19T09:18:23.672Z,1.30
2023-02-19T09:20:50.562Z,1.13
2023-02-19T09:23:17.296Z,1.17
2023-02-19T09:25:43.976Z,1.58
2023-02-19T09:28:12.134Z,1.70
2023-02-19T09:30:38.839Z,1.48
2023-02-19T09:33:05.933Z,1.80
2023-02-19T09:35:32.682Z,1.30
2023-02-19T09:38:00.234Z,1.70
2023-02-19T09:40:27.144Z,1.27
2023-02-19T09:42:53.904Z,2.22
2023-02-19T09:45:25.052Z,1.25
2023-02-19T09:47:55.052Z,2.10
2023-02-19T09:50:36.418Z,1.67
2023-02-19T09:53:08.217Z,1.40
2023-02-19T09:55:36.887Z,1.40
2023-02-19T09:58:14.456Z,1.50
2023-02-19T10:00:43.417Z,1.33
2023-02-19T10:03:14.523Z,1.33
2023-02-19T10:05:41.920Z,1.35
2023-02-19T10:08:15.610Z,1.10
2023-02-19T10:10:44.346Z,1.10
2023-02-19T10:13:18.381Z,1.40
2023-02-19T10:15:49.876Z,1.50
2023-02-19T10:18:18.604Z,1.70
2023-02-19T10:20:46.447Z,3.03
2023-02-19T10:23:15.534Z,3.17
2023-02-19T10:25:46.766Z,3.63
2023-02-19T10:28:16.820Z,2.55
2023-02-19T10:30:44.129Z,2.10
2023-02-19T10:33:14.500Z,2.05
2023-02-19T10:35:54.052Z,1.55
2023-02-19T10:38:23.901Z,1.75
2023-02-19T10:40:56.595Z,1.77
2023-02-19T10:43:26.731Z,2.33
2023-02-19T10:45:53.523Z,2.05
2023-02-19T10:48:24.800Z,2.30
2023-02-19T10:50:53.397Z,1.60
2023-02-19T10:53:22.156Z,2.05
2023-02-19T10:55:48.855Z,2.00
2023-02-19T10:58:23.359Z,1.83
2023-02-19T11:01:10.177Z,1.70
2023-02-19T11:03:38.433Z,1.15
2023-02-19T11:06:07.348Z,1.50
2023-02-19T11:08:46.816Z,0.80
2023-02-19T11:11:24.671Z,0.73
2023-02-19T11:13:51.822Z,0.90
2023-02-19T11:16:18.612Z,0.80
2023-02-19T11:18:56.845Z,0.95
2023-02-19T11:21:27.091Z,0.75
2023-02-19T11:23:55.157Z,1.13
2023-02-19T11:26:26.833Z,0.70
2023-02-19T11:28:57.299Z,0.98
2023-02-19T11:31:26.101Z,1.00
2023-02-19T11:33:57.068Z,1.00
2023-02-19T11:36:34.214Z,1.08
2023-02-19T11:39:23.568Z,1.00
2023-02-19T11:42:29.596Z,0.88
2023-02-19T11:45:20.080Z,1.00
2023-02-19T11:48:11.856Z,0.80
2023-02-19T11:50:51.971Z,0.95
2023-02-19T11:53:25.531Z,1.10
2023-02-19T11:56:02.922Z,1.10
2023-02-19T11:58:45.311Z,1.30
2023-02-19T12:01:20.685Z,1.10
2023-02-19T12:04:05.564Z,1.00
2023-02-19T12:06:40.101Z,1.05
2023-02-19T12:09:17.684Z,1.00
2023-02-19T12:11:55.105Z,1.00
2023-02-19T12:14:58.664Z,0.90
2023-02-19T12:17:47.847Z,0.90
2023-02-19T12:20:25.318Z,0.80
2023-02-19T12:23:04.125Z,1.00
2023-02-19T12:25:52.686Z,1.00
2023-02-19T12:28:47.409Z,1.10
2023-02-19T12:31:45.155Z,0.90
2023-02-19T12:34:26.442Z,1.15
2023-02-19T12:37:04.392Z,1.40
2023-02-19T12:39:40.486Z,0.90
2023-02-19T12:42:15.268Z,1.60
2023-02-19T12:44:46.543Z,1.63
2023-02-19T12:47:17.765Z,1.75
2023-02-19T12:49:50.506Z,1.63
2023-02-19T12:52:22.183Z,1.70
2023-02-19T12:54:55.817Z,1.55
2023-02-19T12:57:26.984Z,5.80
2023-02-19T12:59:58.792Z,2.00
2023-02-19T13:02:29.696Z,1.80
2023-02-19T13:05:01.473Z,1.77
2023-02-19T13:07:32.741Z,1.77
2023-02-19T13:10:13.901Z,2.88
2023-02-19T13:12:45.564Z,1.70
2023-02-19T13:15:17.299Z,1.80
2023-02-19T13:17:47.350Z,1.70
2023-02-19T13:20:18.325Z,1.60
2023-02-19T13:22:51.862Z,1.23
2023-02-19T13:25:21.311Z,1.58
2023-02-19T13:28:13.059Z,1.73
2023-02-19T13:31:00.076Z,1.92
2023-02-19T13:33:47.122Z,1.63
2023-02-19T13:36:18.606Z,2.13
2023-02-19T13:38:47.979Z,1.52
2023-02-19T13:41:31.699Z,1.48
2023-02-19T13:44:01.957Z,1.40
2023-02-19T13:46:38.587Z,1.30
2023-02-19T13:49:24.300Z,1.20
2023-02-19T13:51:52.155Z,1.20
2023-02-19T13:54:25.593Z,1.10
2023-02-19T13:57:30.276Z,1.50
2023-02-19T13:59:57.548Z,1.33
2023-02-19T14:02:31.167Z,1.70
2023-02-19T14:05:00.167Z,1.50
2023-02-19T14:07:52.221Z,1.52
2023-02-19T14:10:58.243Z,1.38
2023-02-19T14:14:00.894Z,1.30
2023-02-19T14:16:51.477Z,1.27
2023-02-19T14:19:52.431Z,1.50
2023-02-19T14:23:04.580Z,1.10
2023-02-19T14:25:42.236Z,1.13
2023-02-19T14:28:19.019Z,1.13
2023-02-19T14:30:50.883Z,1.70
2023-02-19T14:33:20.995Z,1.20
2023-02-19T14:35:52.353Z,1.13
2023-02-19T14:38:23.530Z,1.58
2023-02-19T14:40:51.168Z,1.50
2023-02-19T14:43:19.732Z,1.60
2023-02-19T14:45:51.335Z,1.77
2023-02-19T14:48:21.861Z,1.23
2023-02-19T14:50:52.167Z,1.40
2023-02-19T14:53:22.344Z,1.63
2023-02-19T14:55:50.715Z,1.48
2023-02-19T14:58:24.312Z,2.40
2023-02-19T15:00:52.455Z,1.55
2023-02-19T15:03:28.130Z,1.38
2023-02-19T15:05:57.282Z,1.77
2023-02-19T15:08:31.077Z,1.60
2023-02-19T15:10:58.095Z,1.50
2023-02-19T15:13:27.411Z,1.73
2023-02-19T15:15:55.737Z,1.40
2023-02-19T15:18:24.677Z,1.98
2023-02-19T15:20:58.055Z,2.05
2023-02-19T15:23:26.617Z,3.92
2023-02-19T15:25:53.536Z,2.00
2023-02-19T15:28:28.221Z,1.80
2023-02-19T15:31:13.512Z,2.50
2023-02-19T15:33:48.292Z,2.30
2023-02-19T15:36:20.613Z,2.05
2023-02-19T15:38:53.366Z,2.20
2023-02-19T15:41:22.244Z,2.70
2023-02-19T15:43:52.670Z,2.60
2023-02-19T15:46:22.230Z,2.85
2023-02-19T15:48:56.112Z,2.97
2023-02-19T15:51:27.093Z,2.40
2023-02-19T15:54:02.810Z,2.50
2023-02-19T15:56:31.896Z,2.40
2023-02-19T15:59:03.071Z,3.00
2023-02-19T16:01:34.231Z,3.60
2023-02-19T16:04:01.287Z,2.90
2023-02-19T16:06:28.806Z,3.30
2023-02-19T16:09:02.862Z,3.15
2023-02-19T16:11:36.058Z,2.70
2023-02-19T16:14:28.488Z,2.90
2023-02-19T16:16:58.567Z,2.00
2023-02-19T16:19:28.610Z,2.60
2023-02-19T16:21:56.184Z,2.70
2023-02-19T16:24:27.732Z,2.40
2023-02-19T16:26:56.134Z,2.58
2023-02-19T16:29:25.257Z,2.60
2023-02-19T16:31:54.751Z,3.17
2023-02-19T16:34:31.300Z,2.28
2023-02-19T16:36:57.987Z,1.75
2023-02-19T16:39:24.764Z,2.35
2023-02-19T16:42:18.536Z,2.00
2023-02-19T16:44:46.820Z,2.75
2023-02-19T16:47:34.661Z,2.15
2023-02-19T16:50:11.827Z,2.22
2023-02-19T16:52:50.480Z,1.73
2023-02-19T16:55:17.451Z,1.95
2023-02-19T16:57:44.197Z,1.42
2023-02-19T17:00:16.811Z,1.60
2023-02-19T17:02:43.632Z,1.20
2023-02-19T17:05:11.810Z,0.80
2023-02-19T17:07:38.509Z,0.60
2023-02-19T17:10:06.041Z,0.93
2023-02-19T17:12:32.742Z,0.88
2023-02-19T17:14:59.504Z,0.85
2023-02-19T17:17:26.183Z,0.88
2023-02-19T17:19:52.871Z,1.08
2023-02-19T17:22:20.892Z,0.93
2023-02-19T17:24:47.659Z,1.02
2023-02-19T17:27:14.450Z,1.17
2023-02-19T17:29:41.279Z,1.00
2023-02-19T17:32:08.289Z,0.88
2023-02-19T17:34:35.035Z,1.15
2023-02-19T17:37:01.753Z,0.95
2023-02-19T17:39:29.873Z,0.80
2023-02-19T17:41:56.586Z,0.90
2023-02-19T17:44:23.330Z,1.23
2023-02-19T17:46:50.072Z,0.82
2023-02-19T17:49:16.746Z,0.90
2023-02-19T17:51:43.432Z,0.77
2023-02-19T17:54:10.165Z,0.90
2023-02-19T17:56:38.246Z,0.80
2023-02-19T17:59:05.003Z,0.88
2023-02-19T18:01:31.754Z,1.00
2023-02-19T18:03:58.622Z,1.00
2023-02-19T18:06:25.452Z,2.70
2023-02-19T18:08:53.315Z,3.55
2023-02-19T18:11:21.191Z,3.22
2023-02-19T18:13:50.002Z,3.00
2023-02-19T18:16:16.817Z,2.22
2023-02-19T18:18:43.868Z,2.72
2023-02-19T18:21:12.659Z,3.35
2023-02-19T18:23:39.826Z,2.13
2023-02-19T18:26:07.860Z,2.40
2023-02-19T18:28:35.112Z,1.90
2023-02-19T18:31:03.629Z,2.55
2023-02-19T18:33:30.392Z,2.90
2023-02-19T18:35:57.157Z,3.50
2023-02-19T18:38:23.878Z,3.95
2023-02-19T18:40:50.558Z,3.60
2023-02-19T18:43:17.275Z,3.13
2023-02-19T18:45:44.049Z,3.60
2023-02-19T18:48:12.499Z,4.55
2023-02-19T18:50:39.277Z,5.25
2023-02-19T18:53:06.083Z,4.95
2023-02-19T18:55:32.728Z,4.57
2023-02-19T18:57:59.430Z,4.55
2023-02-19T19:00:26.543Z,4.65
2023-02-19T19:02:57.362Z,4.30
2023-02-19T19:05:26.408Z,4.70
2023-02-19T19:07:53.373Z,4.40
2023-02-19T19:10:20.730Z,4.22
2023-02-19T19:12:47.930Z,6.18
2023-02-19T19:15:18.074Z,6.35
2023-02-19T19:17:45.147Z,5.53
2023-02-19T19:20:12.193Z,4.70
2023-02-19T19:22:40.274Z,4.82
2023-02-19T19:25:07.941Z,5.40
2023-02-19T19:27:34.753Z,5.47
2023-02-19T19:30:01.625Z,5.68
2023-02-19T19:32:28.513Z,6.78
2023-02-19T19:34:55.361Z,6.28
2023-02-19T19:37:22.152Z,5.97
2023-02-19T19:39:50.555Z,5.53
2023-02-19T19:42:17.251Z,5.85
2023-02-19T19:44:44.490Z,5.60
2023-02-19T19:47:11.281Z,6.13
2023-02-19T19:49:37.937Z,5.07
2023-02-19T19:52:04.733Z,4.10
2023-02-19T19:54:31.398Z,3.88
2023-02-19T19:56:59.711Z,4.30
2023-02-19T19:59:26.389Z,4.68
2023-02-19T20:01:54.503Z,4.72
2023-02-19T20:04:23.801Z,4.80
2023-02-19T20:06:51.226Z,4.90
2023-02-19T20:09:18.383Z,4.78
2023-02-19T20:11:46.472Z,5.10
2023-02-19T20:14:15.190Z,4.25
2023-02-19T20:16:44.405Z,4.38
2023-02-19T20:19:11.502Z,4.00
2023-02-19T20:21:38.314Z,4.35
2023-02-19T20:24:05.573Z,3.95
2023-02-19T20:26:32.509Z,4.32
2023-02-19T20:28:59.348Z,3.47
2023-02-19T20:31:27.704Z,5.65
2023-02-19T20:33:54.513Z,4.28
2023-02-19T20:36:21.251Z,3.28
2023-02-19T20:38:49.730Z,3.35
2023-02-19T20:41:16.575Z,3.53
2023-02-19T20:43:43.260Z,3.88
2023-02-19T20:46:10.263Z,6.90
2023-02-19T20:48:38.883Z,10.77
2023-02-19T20:51:05.795Z,17.10
2023-02-19T20:53:32.596Z,7.22
2023-02-19T20:55:59.472Z,6.35
2023-02-19T20:58:26.223Z,4.38
2023-02-19T21:00:52.995Z,3.28
2023-02-19T21:03:19.997Z,4.70
2023-02-19T21:05:48.462Z,5.05
2023-02-19T21:08:15.197Z,4.03
2023-02-19T21:10:42.002Z,3.70
2023-02-19T21:13:08.707Z,4.65
2023-02-19T21:15:35.526Z,4.28
2023-02-19T21:18:02.322Z,4.18
2023-02-19T21:20:28.993Z,2.90
2023-02-19T21:22:57.154Z,3.60
2023-02-19T21:25:23.956Z,2.85
2023-02-19T21:27:50.706Z,3.58
2023-02-19T21:30:17.821Z,3.72
2023-02-19T21:32:44.585Z,4.80
2023-02-19T21:35:11.263Z,4.78
2023-02-19T21:37:41.682Z,4.93
2023-02-19T21:40:11.375Z,4.90
2023-02-19T21:42:38.136Z,4.10
2023-02-19T21:45:05.672Z,3.97
2023-02-19T21:47:32.460Z,4.78
2023-02-19T21:49:59.252Z,4.53
2023-02-19T21:52:25.999Z,5.32
2023-02-19T21:54:53.043Z,7.10
2023-02-19T21:57:21.191Z,5.80
2023-02-19T21:59:47.937Z,4.47
2023-02-19T22:02:14.889Z,4.22
2023-02-19T22:04:41.628Z,3.65
2023-02-19T22:07:08.324Z,3.65
2023-02-19T22:09:35.174Z,3.25
2023-02-19T22:12:01.848Z,3.72
2023-02-19T22:14:29.958Z,3.60
2023-02-19T22:16:59.560Z,3.05
2023-02-19T22:19:26.240Z,3.55
2023-02-19T22:21:52.990Z,4.03
2023-02-19T22:24:21.468Z,3.63
2023-02-19T22:26:48.492Z,3.80
2023-02-19T22:29:15.763Z,4.78
2023-02-19T22:31:43.920Z,4.28
2023-02-19T22:34:10.764Z,4.40
2023-02-19T22:36:37.482Z,3.88
2023-02-19T22:39:05.308Z,3.83
2023-02-19T22:41:32.036Z,3.42
2023-02-19T22:43:59.107Z,3.35
2023-02-19T22:46:28.060Z,3.00
2023-02-19T22:48:56.244Z,2.55
2023-02-19T22:51:24.282Z,2.42
2023-02-19T22:53:53.978Z,2.90
2023-02-19T22:56:21.999Z,3.03
2023-02-19T22:58:48.983Z,3.47
2023-02-19T23:01:15.824Z,3.70
2023-02-19T23:03:47.478Z,3.88
2023-02-19T23:06:16.277Z,4.10
2023-02-19T23:08:43.799Z,3.55
2023-02-19T23:11:11.193Z,4.82
2023-02-19T23:13:38.146Z,5.05
2023-02-19T23:16:05.170Z,3.33
2023-02-19T23:18:32.126Z,3.35
2023-02-19T23:20:59.772Z,4.10
2023-02-19T23:23:27.821Z,3.40
2023-02-19T23:25:54.481Z,2.80
2023-02-19T23:28:21.154Z,3.33
2023-02-19T23:30:47.905Z,3.45
2023-02-19T23:33:14.862Z,3.92
2023-02-19T23:35:41.552Z,3.85
2023-02-19T23:38:08.487Z,4.10
2023-02-19T23:40:36.692Z,4.95
2023-02-19T23:43:03.570Z,5.03
2023-02-19T23:45:30.352Z,4.63
2023-02-19T23:47:57.183Z,4.63
2023-02-19T23:50:23.939Z,4.65
2023-02-19T23:52:50.786Z,3.90
2023-02-19T23:55:17.565Z,3.88
2023-02-19T23:57:45.635Z,4.30
